createdAt,value
2017-06-20T00:02:13.131Z,19.70
2017-06-20T00:04:40.735Z,19.70
2017-06-20T00:07:08.661Z,19.60
2017-06-20T00:09:36.223Z,19.60
2017-06-20T00:12:03.756Z,19.50
2017-06-20T00:14:31.288Z,19.50
2017-06-20T00:16:58.879Z,19.50
2017-06-20T00:19:26.458Z,19.50
2017-06-20T00:21:54.016Z,19.40
2017-06-20T00:24:21.526Z,19.40
2017-06-20T00:26:49.079Z,19.40
2017-06-20T00:29:16.628Z,19.40
2017-06-20T00:31:44.196Z,19.30
2017-06-20T00:34:11.731Z,19.30
2017-06-20T00:36:39.653Z,19.30
2017-06-20T00:39:07.209Z,19.30
2017-06-20T00:41:34.736Z,19.30
2017-06-20T00:44:02.273Z,19.20
2017-06-20T00:46:29.832Z,19.20
2017-06-20T00:48:57.391Z,19.20
2017-06-20T00:51:24.921Z,19.20
2017-06-20T00:53:52.450Z,19.10
2017-06-20T00:56:19.985Z,19.10
2017-06-20T00:58:47.529Z,19.10
2017-06-20T01:01:15.148Z,19.10
2017-06-20T01:03:42.682Z,19.10
2017-06-20T01:06:10.247Z,19.00
2017-06-20T01:08:37.780Z,19.00
2017-06-20T01:11:05.340Z,19.00
2017-06-20T01:13:32.905Z,18.90
2017-06-20T01:16:01.164Z,18.90
2017-06-20T01:18:28.716Z,18.90
2017-06-20T01:20:56.639Z,18.90
2017-06-20T01:23:24.211Z,18.90
2017-06-20T01:25:51.753Z,18.90
2017-06-20T01:28:19.329Z,18.90
2017-06-20T01:30:46.877Z,18.90
2017-06-20T01:33:14.408Z,18.90
2017-06-20T01:35:41.979Z,18.80
2017-06-20T01:38:09.517Z,18.80
2017-06-20T01:40:37.092Z,18.80
2017-06-20T01:43:04.621Z,18.80
2017-06-20T01:45:32.178Z,18.80
2017-06-20T01:48:00.713Z,18.80
2017-06-20T01:50:28.273Z,18.80
2017-06-20T01:52:55.811Z,18.70
2017-06-20T01:55:23.377Z,18.70
2017-06-20T01:57:50.920Z,18.70
2017-06-20T02:00:18.468Z,18.70
2017-06-20T02:02:46.031Z,18.70
2017-06-20T02:05:13.619Z,18.70
2017-06-20T02:07:41.168Z,18.60
2017-06-20T02:10:08.687Z,18.60
2017-06-20T02:12:36.238Z,18.60
2017-06-20T02:15:03.779Z,18.60
2017-06-20T02:17:32.046Z,18.60
2017-06-20T02:19:59.600Z,18.60
2017-06-20T02:22:27.139Z,18.60
2017-06-20T02:24:54.685Z,18.50
2017-06-20T02:27:22.225Z,18.60
2017-06-20T02:29:49.789Z,18.60
2017-06-20T02:32:17.335Z,18.50
2017-06-20T02:34:44.917Z,18.50
2017-06-20T02:37:12.445Z,18.50
2017-06-20T02:39:40.015Z,18.50
2017-06-20T02:42:07.557Z,18.50
2017-06-20T02:44:35.104Z,18.60
2017-06-20T02:47:02.674Z,18.60
2017-06-20T02:49:30.827Z,18.70
2017-06-20T02:51:59.948Z,18.60
2017-06-20T02:54:27.481Z,18.70
2017-06-20T02:56:55.026Z,18.60
2017-06-20T02:59:22.600Z,18.50
2017-06-20T03:01:50.557Z,18.50
2017-06-20T03:04:18.088Z,18.50
2017-06-20T03:06:45.649Z,18.50
2017-06-20T03:09:13.175Z,18.50
2017-06-20T03:11:40.712Z,18.40
2017-06-20T03:14:08.273Z,18.40
2017-06-20T03:16:35.826Z,18.30
2017-06-20T03:19:03.779Z,18.30
2017-06-20T03:21:31.723Z,18.30
2017-06-20T03:23:59.310Z,18.30
2017-06-20T03:26:26.863Z,18.30
2017-06-20T03:28:54.458Z,18.30
2017-06-20T03:31:22.002Z,18.20
2017-06-20T03:33:49.615Z,18.20
2017-06-20T03:36:17.196Z,18.20
2017-06-20T03:38:44.712Z,18.20
2017-06-20T03:41:12.269Z,18.20
2017-06-20T03:43:39.802Z,18.20
2017-06-20T03:46:07.357Z,18.20
2017-06-20T03:48:34.899Z,18.30
2017-06-20T03:51:02.468Z,18.30
2017-06-20T03:53:30.017Z,18.30
2017-06-20T03:55:57.939Z,18.30
2017-06-20T03:58:25.489Z,18.40
2017-06-20T04:00:53.017Z,18.40
2017-06-20T04:03:20.571Z,18.50
2017-06-20T04:05:48.109Z,18.50
2017-06-20T04:08:15.673Z,18.50
2017-06-20T04:10:43.609Z,18.50
2017-06-20T04:13:11.160Z,18.50
2017-06-20T04:15:38.675Z,18.40
2017-06-20T04:18:06.229Z,18.40
2017-06-20T04:20:33.766Z,18.40
2017-06-20T04:23:01.289Z,18.40
2017-06-20T04:25:28.833Z,18.40
2017-06-20T04:27:56.362Z,18.50
2017-06-20T04:30:23.920Z,18.50
2017-06-20T04:32:51.452Z,18.50
2017-06-20T04:35:18.991Z,18.50
2017-06-20T04:37:46.541Z,18.50
2017-06-20T04:40:14.090Z,18.50
2017-06-20T04:42:41.622Z,18.50
2017-06-20T04:45:09.168Z,18.60
2017-06-20T04:47:36.706Z,18.60
2017-06-20T04:50:04.233Z,18.70
2017-06-20T04:52:31.776Z,18.70
2017-06-20T04:55:00.339Z,18.80
2017-06-20T04:57:27.898Z,18.90
2017-06-20T04:59:55.437Z,18.90
2017-06-20T05:02:23.438Z,19.10
2017-06-20T05:04:50.977Z,19.10
2017-06-20T05:07:18.522Z,19.10
2017-06-20T05:09:46.068Z,19.20
2017-06-20T05:12:14.002Z,19.40
2017-06-20T05:14:41.561Z,19.40
2017-06-20T05:17:09.072Z,19.50
2017-06-20T05:19:36.658Z,19.60
2017-06-20T05:22:04.209Z,19.80
2017-06-20T05:24:31.768Z,19.90
2017-06-20T05:27:00.166Z,20.10
2017-06-20T05:29:27.721Z,20.40
2017-06-20T05:31:55.275Z,20.70
2017-06-20T05:34:22.824Z,21.00
2017-06-20T05:36:50.367Z,21.20
2017-06-20T05:39:17.952Z,21.50
2017-06-20T05:41:45.505Z,21.80
2017-06-20T05:44:13.078Z,22.00
2017-06-20T05:46:40.626Z,22.30
2017-06-20T05:49:08.166Z,22.60
2017-06-20T05:51:35.793Z,22.90
2017-06-20T05:54:03.737Z,23.40
2017-06-20T05:56:31.288Z,23.40
2017-06-20T05:58:59.441Z,23.60
2017-06-20T06:01:29.476Z,23.70
2017-06-20T06:03:57.027Z,23.90
2017-06-20T06:06:24.639Z,24.10
2017-06-20T06:08:52.201Z,24.40
2017-06-20T06:11:19.749Z,24.60
2017-06-20T06:13:47.721Z,24.70
2017-06-20T06:16:15.645Z,24.80
2017-06-20T06:18:43.176Z,24.80
2017-06-20T06:21:10.729Z,24.90
2017-06-20T06:23:38.299Z,25.10
2017-06-20T06:26:05.899Z,25.20
2017-06-20T06:28:33.531Z,25.40
2017-06-20T06:31:01.091Z,25.50
2017-06-20T06:33:28.632Z,25.60
2017-06-20T06:35:56.213Z,25.80
2017-06-20T06:38:23.737Z,25.90
2017-06-20T06:40:51.292Z,26.10
2017-06-20T06:43:18.847Z,26.20
2017-06-20T06:45:46.400Z,26.40
2017-06-20T06:48:13.985Z,26.50
2017-06-20T06:50:41.524Z,26.50
2017-06-20T06:53:09.097Z,26.60
2017-06-20T06:55:36.719Z,26.80
2017-06-20T06:58:04.681Z,27.00
2017-06-20T07:00:32.226Z,27.00
2017-06-20T07:02:59.778Z,27.10
2017-06-20T07:05:27.329Z,27.20
2017-06-20T07:07:54.857Z,27.20
2017-06-20T07:10:22.422Z,27.30
2017-06-20T07:12:49.940Z,27.50
2017-06-20T07:15:17.515Z,27.50
2017-06-20T07:17:45.057Z,27.70
2017-06-20T07:20:19.768Z,27.80
2017-06-20T07:22:47.307Z,27.80
2017-06-20T07:25:14.866Z,28.00
2017-06-20T07:27:42.475Z,28.00
2017-06-20T07:30:10.021Z,28.10
2017-06-20T07:32:37.968Z,28.20
2017-06-20T07:35:05.537Z,28.20
2017-06-20T07:37:33.504Z,28.40
2017-06-20T07:40:01.067Z,28.30
2017-06-20T07:42:29.573Z,28.50
2017-06-20T07:44:57.112Z,28.40
2017-06-20T07:47:25.064Z,28.60
2017-06-20T07:49:53.074Z,28.60
2017-06-20T07:52:20.614Z,28.60
2017-06-20T07:54:48.164Z,28.60
2017-06-20T07:57:15.737Z,28.70
2017-06-20T07:59:43.280Z,28.90
2017-06-20T08:02:11.209Z,29.00
2017-06-20T08:04:38.775Z,29.10
2017-06-20T08:07:06.311Z,29.20
2017-06-20T08:09:33.871Z,29.20
2017-06-20T08:12:01.403Z,29.30
2017-06-20T08:14:28.957Z,29.50
2017-06-20T08:16:56.523Z,29.50
2017-06-20T08:19:24.051Z,29.50
2017-06-20T08:21:57.577Z,29.60
2017-06-20T08:24:25.095Z,29.70
2017-06-20T08:26:52.642Z,29.70
2017-06-20T08:29:20.183Z,29.80
2017-06-20T08:31:47.736Z,30.00
2017-06-20T08:34:15.279Z,30.20
2017-06-20T08:36:42.815Z,30.20
2017-06-20T08:39:10.374Z,30.30
2017-06-20T08:41:37.911Z,30.40
2017-06-20T08:44:05.517Z,30.20
2017-06-20T08:46:33.049Z,30.30
2017-06-20T08:49:00.606Z,30.30
2017-06-20T08:51:28.146Z,30.40
2017-06-20T08:53:56.102Z,30.60
2017-06-20T08:56:23.619Z,30.60
2017-06-20T08:58:51.235Z,30.60
2017-06-20T09:01:18.798Z,30.60
2017-06-20T09:03:46.345Z,30.50
2017-06-20T09:06:13.899Z,30.60
2017-06-20T09:08:41.833Z,30.80
2017-06-20T09:11:09.433Z,30.80
2017-06-20T09:13:36.960Z,31.00
2017-06-20T09:16:04.514Z,30.90
2017-06-20T09:18:32.045Z,30.80
2017-06-20T09:21:00.616Z,30.80
2017-06-20T09:23:28.174Z,30.90
2017-06-20T09:25:55.701Z,31.00
2017-06-20T09:28:23.663Z,31.20
2017-06-20T09:30:51.203Z,31.20
2017-06-20T09:33:18.786Z,31.10
2017-06-20T09:35:46.339Z,31.00
2017-06-20T09:38:13.891Z,31.00
2017-06-20T09:40:41.430Z,31.00
2017-06-20T09:43:08.985Z,30.90
2017-06-20T09:45:36.542Z,31.00
2017-06-20T09:48:04.152Z,31.10
2017-06-20T09:50:31.715Z,31.30
2017-06-20T09:52:59.311Z,31.50
2017-06-20T09:55:26.858Z,31.60
2017-06-20T09:57:54.398Z,31.80
2017-06-20T10:00:21.960Z,32.00
2017-06-20T10:02:49.496Z,31.90
2017-06-20T10:05:17.419Z,31.80
2017-06-20T10:07:44.963Z,31.90
2017-06-20T10:10:12.487Z,31.80
2017-06-20T10:12:40.050Z,31.80
2017-06-20T10:15:07.671Z,31.70
2017-06-20T10:17:35.319Z,31.80
2017-06-20T10:20:02.913Z,31.90
2017-06-20T10:22:30.526Z,32.00
2017-06-20T10:24:58.130Z,32.10
2017-06-20T10:27:26.068Z,32.30
2017-06-20T10:29:53.626Z,32.30
2017-06-20T10:32:21.158Z,32.30
2017-06-20T10:34:48.704Z,32.30
2017-06-20T10:37:16.234Z,32.30
2017-06-20T10:39:43.806Z,32.00
2017-06-20T10:42:11.343Z,32.00
2017-06-20T10:44:38.904Z,32.00
2017-06-20T10:47:06.831Z,32.30
2017-06-20T10:49:34.494Z,32.30
2017-06-20T10:52:02.028Z,32.50
2017-06-20T10:54:29.548Z,32.40
2017-06-20T10:56:57.118Z,32.30
2017-06-20T10:59:25.035Z,32.10
2017-06-20T11:01:52.564Z,32.10
2017-06-20T11:04:20.089Z,32.00
2017-06-20T11:06:48.094Z,32.10
2017-06-20T11:09:15.630Z,32.10
2017-06-20T11:11:43.183Z,32.00
2017-06-20T11:14:10.709Z,32.20
2017-06-20T11:16:38.252Z,32.20
2017-06-20T11:19:05.773Z,32.30
2017-06-20T11:21:33.788Z,32.30
2017-06-20T11:24:01.343Z,32.30
2017-06-20T11:26:28.908Z,32.20
2017-06-20T11:28:56.462Z,32.20
2017-06-20T11:31:23.995Z,32.20
2017-06-20T11:33:51.542Z,32.10
2017-06-20T11:36:19.086Z,32.00
2017-06-20T11:38:46.635Z,32.10
2017-06-20T11:41:14.565Z,31.90
2017-06-20T11:43:42.083Z,31.90
2017-06-20T11:46:09.634Z,31.80
2017-06-20T11:48:37.181Z,31.60
2017-06-20T11:51:04.725Z,31.50
2017-06-20T11:53:32.675Z,31.80
2017-06-20T11:56:00.218Z,31.80
2017-06-20T11:58:27.757Z,32.00
2017-06-20T12:00:55.402Z,32.20
2017-06-20T12:03:22.941Z,32.30
2017-06-20T12:05:50.502Z,32.30
2017-06-20T12:08:18.042Z,32.40
2017-06-20T12:10:45.974Z,32.70
2017-06-20T12:13:13.530Z,32.70
2017-06-20T12:15:41.074Z,32.70
2017-06-20T12:18:08.637Z,32.50
2017-06-20T12:20:36.154Z,32.40
2017-06-20T12:23:04.099Z,32.10
2017-06-20T12:25:31.627Z,32.10
2017-06-20T12:27:59.183Z,32.10
2017-06-20T12:30:26.729Z,32.00
2017-06-20T12:32:54.376Z,32.00
2017-06-20T12:35:21.913Z,32.00
2017-06-20T12:37:49.462Z,32.00
2017-06-20T12:40:17.022Z,32.10
2017-06-20T12:42:44.957Z,31.70
2017-06-20T12:45:12.510Z,31.80
2017-06-20T12:47:40.064Z,31.40
2017-06-20T12:50:07.606Z,31.30
2017-06-20T12:52:35.143Z,31.30
2017-06-20T12:55:02.703Z,31.30
2017-06-20T12:57:30.225Z,31.30
2017-06-20T12:59:57.810Z,31.30
2017-06-20T13:02:25.754Z,31.40
2017-06-20T13:04:53.278Z,31.40
2017-06-20T13:07:20.833Z,31.50
2017-06-20T13:09:48.361Z,31.50
2017-06-20T13:12:15.910Z,31.60
2017-06-20T13:14:43.440Z,31.50
2017-06-20T13:17:10.994Z,31.60
2017-06-20T13:19:38.573Z,31.70
2017-06-20T13:22:06.522Z,32.00
2017-06-20T13:24:34.061Z,31.90
2017-06-20T13:27:01.977Z,32.10
2017-06-20T13:29:29.998Z,32.40
2017-06-20T13:31:57.520Z,32.40
2017-06-20T13:34:25.077Z,32.30
2017-06-20T13:36:52.622Z,32.30
2017-06-20T13:39:20.177Z,32.30
2017-06-20T13:41:47.716Z,32.20
2017-06-20T13:44:15.270Z,31.90
2017-06-20T13:46:42.813Z,31.80
2017-06-20T13:49:10.410Z,31.80
2017-06-20T13:51:59.540Z,31.50
2017-06-20T13:54:27.094Z,31.50
2017-06-20T13:56:54.638Z,31.30
2017-06-20T13:59:22.170Z,31.30
2017-06-20T14:01:49.725Z,31.20
2017-06-20T14:04:17.249Z,31.20
2017-06-20T14:06:44.799Z,31.30
2017-06-20T14:09:12.334Z,31.30
2017-06-20T14:11:39.878Z,31.40
2017-06-20T14:14:07.408Z,31.30
2017-06-20T14:16:34.954Z,31.20
2017-06-20T14:19:02.514Z,31.20
2017-06-20T14:21:31.026Z,31.00
2017-06-20T14:23:58.677Z,31.00
2017-06-20T14:26:26.209Z,30.90
2017-06-20T14:28:54.161Z,31.00
2017-06-20T14:31:21.676Z,31.00
2017-06-20T14:33:49.220Z,31.10
2017-06-20T14:36:16.739Z,31.20
2017-06-20T14:38:44.276Z,31.30
2017-06-20T14:41:11.822Z,31.30
2017-06-20T14:43:39.369Z,31.40
2017-06-20T14:46:06.898Z,31.40
2017-06-20T14:48:34.445Z,31.50
2017-06-20T14:51:01.978Z,31.60
2017-06-20T14:53:29.515Z,31.60
2017-06-20T14:55:57.061Z,31.40
2017-06-20T14:58:24.580Z,31.20
2017-06-20T15:00:52.531Z,30.90
2017-06-20T15:03:20.463Z,30.80
2017-06-20T15:05:48.014Z,30.80
2017-06-20T15:08:15.567Z,30.70
2017-06-20T15:10:43.132Z,30.60
2017-06-20T15:13:10.745Z,30.60
2017-06-20T15:15:38.297Z,30.50
2017-06-20T15:18:06.250Z,30.40
2017-06-20T15:20:33.787Z,30.40
2017-06-20T15:23:01.334Z,30.40
2017-06-20T15:25:28.954Z,30.50
2017-06-20T15:27:56.520Z,30.40
2017-06-20T15:30:24.061Z,30.30
2017-06-20T15:32:52.010Z,30.20
2017-06-20T15:35:19.529Z,30.20
2017-06-20T15:37:47.053Z,30.20
2017-06-20T15:40:14.996Z,30.20
2017-06-20T15:42:42.521Z,30.20
2017-06-20T15:45:10.122Z,30.20
2017-06-20T15:47:37.664Z,30.20
2017-06-20T15:50:05.214Z,30.30
2017-06-20T15:52:32.789Z,30.30
2017-06-20T15:55:00.333Z,30.20
2017-06-20T15:57:27.885Z,30.20
2017-06-20T15:59:55.421Z,30.30
2017-06-20T16:02:22.997Z,30.40
2017-06-20T16:04:50.543Z,30.30
2017-06-20T16:07:18.102Z,30.20
2017-06-20T16:09:45.641Z,30.20
2017-06-20T16:12:13.190Z,30.30
2017-06-20T16:14:40.728Z,30.30
2017-06-20T16:17:08.280Z,30.30
2017-06-20T16:19:35.853Z,30.30
2017-06-20T16:22:03.389Z,30.30
2017-06-20T16:24:30.929Z,30.20
2017-06-20T16:26:58.493Z,30.20
2017-06-20T16:29:26.045Z,30.10
2017-06-20T16:31:53.570Z,30.10
2017-06-20T16:34:21.130Z,30.00
2017-06-20T16:36:48.655Z,30.00
2017-06-20T16:39:16.571Z,29.90
2017-06-20T16:41:44.112Z,30.00
2017-06-20T16:44:11.640Z,29.90
2017-06-20T16:46:39.179Z,29.90
2017-06-20T16:49:06.696Z,29.90
2017-06-20T16:51:34.262Z,29.80
2017-06-20T16:54:02.756Z,29.80
2017-06-20T16:56:30.648Z,29.70
2017-06-20T16:58:58.577Z,29.50
2017-06-20T17:01:26.121Z,29.40
2017-06-20T17:03:53.668Z,29.40
2017-06-20T17:06:21.195Z,29.40
2017-06-20T17:08:49.131Z,29.30
2017-06-20T17:11:16.650Z,29.40
2017-06-20T17:13:44.182Z,29.30
2017-06-20T17:16:12.106Z,29.20
2017-06-20T17:18:39.675Z,29.20
2017-06-20T17:21:07.212Z,29.10
2017-06-20T17:23:34.736Z,29.00
2017-06-20T17:26:02.281Z,28.90
2017-06-20T17:28:30.205Z,28.70
2017-06-20T17:30:57.748Z,28.70
2017-06-20T17:33:25.277Z,28.60
2017-06-20T17:35:52.845Z,28.60
2017-06-20T17:38:20.495Z,28.50
2017-06-20T17:40:48.057Z,28.40
2017-06-20T17:43:15.651Z,28.40
2017-06-20T17:45:43.210Z,28.30
2017-06-20T17:48:10.882Z,28.20
2017-06-20T17:50:38.399Z,28.10
2017-06-20T17:53:05.954Z,28.00
2017-06-20T17:55:33.490Z,27.90
2017-06-20T17:58:01.450Z,27.80
2017-06-20T18:00:28.997Z,27.80
2017-06-20T18:02:56.595Z,27.70
2017-06-20T18:05:24.139Z,27.70
2017-06-20T18:07:51.672Z,27.60
2017-06-20T18:10:19.303Z,27.50
2017-06-20T18:12:46.842Z,27.50
2017-06-20T18:15:14.393Z,27.50
2017-06-20T18:17:41.930Z,27.50
2017-06-20T18:20:09.880Z,27.30
2017-06-20T18:22:37.425Z,27.30
2017-06-20T18:25:04.989Z,27.30
2017-06-20T18:27:32.529Z,27.20
2017-06-20T18:30:00.045Z,27.10
2017-06-20T18:32:27.601Z,27.00
2017-06-20T18:34:55.135Z,26.90
2017-06-20T18:37:26.837Z,26.80
2017-06-20T18:39:54.383Z,26.70
2017-06-20T18:42:22.092Z,26.60
2017-06-20T18:44:49.621Z,26.60
2017-06-20T18:47:18.204Z,26.60
2017-06-20T18:49:45.749Z,26.50
2017-06-20T18:52:13.285Z,26.50
2017-06-20T18:54:41.265Z,26.40
2017-06-20T18:57:08.805Z,26.40
2017-06-20T18:59:36.358Z,26.30
2017-06-20T19:02:03.916Z,26.20
2017-06-20T19:04:31.873Z,26.10
2017-06-20T19:06:59.406Z,26.10
2017-06-20T19:09:26.968Z,26.00
2017-06-20T19:11:54.504Z,26.00
2017-06-20T19:14:22.120Z,25.90
2017-06-20T19:16:50.061Z,25.80
2017-06-20T19:19:17.634Z,25.80
2017-06-20T19:21:45.181Z,25.80
2017-06-20T19:24:12.765Z,25.70
2017-06-20T19:26:40.334Z,25.60
2017-06-20T19:29:08.048Z,25.60
2017-06-20T19:31:35.620Z,25.60
2017-06-20T19:34:03.181Z,25.50
2017-06-20T19:36:30.975Z,25.50
2017-06-20T19:38:58.626Z,25.40
2017-06-20T19:41:26.572Z,25.30
2017-06-20T19:43:54.153Z,25.30
2017-06-20T19:46:22.160Z,25.20
2017-06-20T19:48:49.730Z,25.20
2017-06-20T19:51:17.269Z,25.10
2017-06-20T19:53:44.824Z,25.10
2017-06-20T19:56:12.370Z,25.00
2017-06-20T19:58:39.923Z,24.90
2017-06-20T20:01:07.853Z,24.80
2017-06-20T20:03:35.377Z,24.80
2017-06-20T20:06:02.935Z,24.70
2017-06-20T20:08:31.573Z,24.60
2017-06-20T20:10:59.624Z,24.50
2017-06-20T20:13:27.169Z,24.50
2017-06-20T20:15:54.737Z,24.40
2017-06-20T20:18:22.291Z,24.30
2017-06-20T20:20:49.904Z,24.30
2017-06-20T20:23:17.462Z,24.20
2017-06-20T20:25:45.009Z,24.10
2017-06-20T20:28:13.038Z,24.00
2017-06-20T20:30:40.578Z,24.00
2017-06-20T20:33:08.332Z,23.90
2017-06-20T20:35:35.978Z,23.90
2017-06-20T20:38:03.518Z,23.90
2017-06-20T20:40:31.512Z,23.70
2017-06-20T20:42:59.073Z,23.80
2017-06-20T20:45:26.617Z,23.70
2017-06-20T20:47:54.153Z,23.60
2017-06-20T20:50:22.154Z,23.60
2017-06-20T20:52:49.694Z,23.60
2017-06-20T20:55:17.223Z,23.50
2017-06-20T20:57:44.777Z,23.50
2017-06-20T21:00:12.303Z,23.40
2017-06-20T21:02:39.848Z,23.40
2017-06-20T21:05:07.378Z,23.40
2017-06-20T21:07:35.307Z,23.30
2017-06-20T21:10:02.854Z,23.30
2017-06-20T21:12:30.387Z,23.20
2017-06-20T21:14:57.941Z,23.20
2017-06-20T21:17:25.469Z,23.00
2017-06-20T21:19:53.385Z,22.90
2017-06-20T21:22:20.941Z,23.00
2017-06-20T21:24:48.485Z,22.90
2017-06-20T21:27:16.033Z,22.80
2017-06-20T21:29:43.556Z,22.80
2017-06-20T21:32:11.113Z,22.80
2017-06-20T21:34:38.641Z,22.70
2017-06-20T21:37:06.189Z,22.60
2017-06-20T21:39:33.752Z,22.60
2017-06-20T21:42:01.285Z,22.50
2017-06-20T21:44:29.766Z,22.50
2017-06-20T21:46:57.303Z,22.50
2017-06-20T21:49:25.240Z,22.40
2017-06-20T21:51:52.757Z,22.40
2017-06-20T21:54:20.308Z,22.30
2017-06-20T21:56:47.857Z,22.30
2017-06-20T21:59:15.396Z,22.20
2017-06-20T22:01:43.327Z,22.10
2017-06-20T22:04:10.863Z,22.20
2017-06-20T22:06:38.417Z,22.00
2017-06-20T22:09:05.950Z,22.00
2017-06-20T22:11:33.521Z,21.90
2017-06-20T22:14:01.065Z,21.90
2017-06-20T22:16:29.071Z,21.90
2017-06-20T22:18:56.629Z,21.80
2017-06-20T22:21:24.161Z,21.80
2017-06-20T22:23:51.721Z,21.70
2017-06-20T22:26:19.375Z,21.60
2017-06-20T22:28:46.946Z,21.60
2017-06-20T22:31:14.471Z,21.60
2017-06-20T22:33:42.397Z,21.50
2017-06-20T22:36:09.989Z,21.50
2017-06-20T22:38:37.537Z,21.50
2017-06-20T22:41:05.153Z,21.40
2017-06-20T22:43:32.675Z,21.40
2017-06-20T22:46:00.638Z,21.30
2017-06-20T22:48:28.170Z,21.30
2017-06-20T22:50:55.731Z,21.20
2017-06-20T22:53:23.269Z,21.20
2017-06-20T22:55:50.797Z,21.20
2017-06-20T22:58:18.348Z,21.10
2017-06-20T23:00:46.274Z,21.00
2017-06-20T23:03:13.813Z,21.00
2017-06-20T23:05:41.361Z,21.00
2017-06-20T23:08:08.912Z,20.90
2017-06-20T23:10:36.430Z,20.90
2017-06-20T23:13:04.065Z,20.80
2017-06-20T23:15:31.604Z,20.80
2017-06-20T23:18:00.304Z,20.80
2017-06-20T23:20:27.848Z,20.70
2017-06-20T23:22:55.397Z,20.70
2017-06-20T23:25:22.941Z,20.70
2017-06-20T23:27:50.473Z,20.60
2017-06-20T23:30:18.407Z,20.50
2017-06-20T23:32:45.938Z,20.60
2017-06-20T23:35:13.479Z,20.50
2017-06-20T23:37:41.009Z,20.50
2017-06-20T23:40:08.926Z,20.40
2017-06-20T23:42:36.608Z,20.40
2017-06-20T23:45:04.122Z,20.40
2017-06-20T23:47:31.665Z,20.30
2017-06-20T23:49:59.629Z,20.30
2017-06-20T23:52:27.204Z,20.30
2017-06-20T23:54:54.744Z,20.30
2017-06-20T23:57:22.709Z,20.20
2017-06-20T23:59:50.636Z,20.20
